Time;durP1;ratioP1;P1;durP2;ratioP2;P2;SDS_P1;SDS_P2;PMS_P1;PMS_P2;Temp;Humidity;BMP_temperature;BMP_pressure;BME280_temperature;BME280_humidity;BME280_pressure;Samples;Min_cycle;Max_cycle;Signal;HPM_P1;HPM_P2
2023/11/01 00:01:06;;;;;;;4.33;2.30;;;;;;;;;;5066032;28;20323;-57
2023/11/01 00:03:32;;;;;;;3.47;2.23;;;;;;;;;;5067971;28;20635;-57
2023/11/01 00:05:58;;;;;;;3.08;2.20;;;;;;;;;;5064037;28;20593;-58
2023/11/01 00:08:24;;;;;;;3.53;2.20;;;;;;;;;;5067236;28;20206;-58
2023/11/01 00:10:50;;;;;;;2.63;2.07;;;;;;;;;;5068769;28;20241;-58
2023/11/01 00:13:16;;;;;;;2.70;2.20;;;;;;;;;;5067463;28;20192;-58
2023/11/01 00:15:42;;;;;;;4.10;2.23;;;;;;;;;;5062346;28;20277;-59
2023/11/01 00:18:08;;;;;;;4.30;2.50;;;;;;;;;;5066388;28;20650;-59
2023/11/01 00:20:34;;;;;;;3.77;2.80;;;;;;;;;;5064644;28;20193;-58
2023/11/01 00:23:00;;;;;;;2.37;2.03;;;;;;;;;;5065410;28;20185;-59
2023/11/01 00:25:27;;;;;;;3.40;2.20;;;;;;;;;;5065571;28;20182;-58
2023/11/01 00:27:53;;;;;;;3.23;2.33;;;;;;;;;;5066925;28;20260;-58
2023/11/01 00:30:19;;;;;;;3.93;2.43;;;;;;;;;;5063978;28;20189;-58
2023/11/01 00:32:45;;;;;;;3.27;2.30;;;;;;;;;;5065161;28;20216;-58
2023/11/01 00:35:11;;;;;;;3.37;2.43;;;;;;;;;;5063864;28;20730;-58
2023/11/01 00:37:38;;;;;;;3.20;2.10;;;;;;;;;;5065671;28;20192;-59
2023/11/01 00:40:04;;;;;;;3.27;2.53;;;;;;;;;;5067537;28;20617;-60
2023/11/01 00:42:30;;;;;;;4.90;2.63;;;;;;;;;;5071922;28;20323;-59
2023/11/01 00:44:56;;;;;;;2.77;2.57;;;;;;;;;;5069442;28;20180;-59
2023/11/01 00:47:22;;;;;;;4.03;2.40;;;;;;;;;;5065188;28;20641;-60
2023/11/01 00:49:48;;;;;;;2.50;2.30;;;;;;;;;;5065198;28;20184;-60
2023/11/01 00:52:14;;;;;;;3.97;2.40;;;;;;;;;;5066704;28;20176;-59
2023/11/01 00:54:40;;;;;;;7.00;2.77;;;;;;;;;;5066145;28;20179;-59
2023/11/01 00:57:06;;;;;;;4.80;2.20;;;;;;;;;;5066527;28;20557;-60
2023/11/01 00:59:32;;;;;;;2.63;2.13;;;;;;;;;;5066262;28;20249;-59
2023/11/01 01:01:58;;;;;;;3.83;2.13;;;;;;;;;;5066652;28;20179;-59
2023/11/01 01:04:24;;;;;;;4.53;2.63;;;;;;;;;;5072118;28;20486;-60
2023/11/01 01:06:50;;;;;;;5.43;2.80;;;;;;;;;;5073400;28;20510;-59
2023/11/01 01:09:17;;;;;;;3.13;2.30;;;;;;;;;;5066543;28;20188;-59
2023/11/01 01:11:43;;;;;;;4.53;2.53;;;;;;;;;;5076283;28;20172;-59
2023/11/01 01:14:09;;;;;;;3.87;2.10;;;;;;;;;;5066603;28;20207;-59
2023/11/01 01:16:36;;;;;;;4.63;2.33;;;;;;;;;;5065779;28;20285;-60
2023/11/01 01:19:03;;;;;;;3.30;2.40;;;;;;;;;;5066704;28;20679;-59
2023/11/01 01:21:29;;;;;;;3.60;2.00;;;;;;;;;;5065544;28;20188;-59
2023/11/01 01:23:55;;;;;;;4.00;2.37;;;;;;;;;;5063452;28;20411;-59
2023/11/01 01:26:22;;;;;;;5.43;1.93;;;;;;;;;;5064237;28;20184;-59
2023/11/01 01:28:48;;;;;;;2.03;1.83;;;;;;;;;;5071423;28;20257;-59
2023/11/01 01:31:14;;;;;;;2.67;2.43;;;;;;;;;;5065450;28;20189;-59
2023/11/01 01:33:44;;;;;;;3.10;1.90;;;;;;;;;;5064959;28;20806;-60
2023/11/01 01:36:11;;;;;;;4.07;2.17;;;;;;;;;;5064555;28;20205;-59
2023/11/01 01:38:37;;;;;;;2.60;2.00;;;;;;;;;;5065569;28;20227;-59
2023/11/01 01:41:03;;;;;;;4.50;2.03;;;;;;;;;;5070777;28;20510;-59
2023/11/01 01:43:29;;;;;;;2.60;2.07;;;;;;;;;;5070493;28;20203;-60
2023/11/01 01:46:10;;;;;;;2.63;2.13;;;;;;;;;;5067964;28;20251;-59
2023/11/01 01:48:37;;;;;;;4.60;2.90;;;;;;;;;;5069035;28;20234;-60
2023/11/01 01:51:04;;;;;;;3.37;2.27;;;;;;;;;;5072477;28;20184;-58
2023/11/01 01:53:31;;;;;;;4.17;2.50;;;;;;;;;;5067482;28;20234;-59
2023/11/01 01:55:57;;;;;;;2.40;2.20;;;;;;;;;;5068257;28;20368;-59
2023/11/01 01:58:25;;;;;;;2.70;2.00;;;;;;;;;;5068595;28;20287;-59
2023/11/01 02:00:52;;;;;;;4.27;2.07;;;;;;;;;;5066360;28;20180;-60
2023/11/01 02:03:18;;;;;;;3.23;2.50;;;;;;;;;;5066894;28;20227;-59
2023/11/01 02:05:44;;;;;;;4.57;2.20;;;;;;;;;;5067429;28;20188;-59
2023/11/01 02:08:10;;;;;;;3.73;2.70;;;;;;;;;;5067574;28;20333;-59
2023/11/01 02:10:36;;;;;;;3.83;2.40;;;;;;;;;;5064130;28;20214;-59
2023/11/01 02:13:12;;;;;;;3.23;2.40;;;;;;;;;;5067737;28;20226;-59
2023/11/01 02:15:42;;;;;;;2.93;1.90;;;;;;;;;;5072146;28;20570;-58
2023/11/01 02:18:08;;;;;;;3.07;1.97;;;;;;;;;;5066956;28;20547;-58
2023/11/01 02:20:36;;;;;;;3.30;2.10;;;;;;;;;;5065931;28;20237;-60
2023/11/01 02:23:03;;;;;;;5.70;2.80;;;;;;;;;;5065685;28;20182;-60
2023/11/01 02:25:30;;;;;;;6.00;2.40;;;;;;;;;;5065893;28;20181;-60
2023/11/01 02:27:57;;;;;;;2.27;2.07;;;;;;;;;;5065539;28;20184;-60
2023/11/01 02:30:24;;;;;;;2.57;2.37;;;;;;;;;;5063278;28;20656;-60
2023/11/01 02:32:50;;;;;;;3.97;2.40;;;;;;;;;;5063597;28;20267;-60
2023/11/01 02:35:17;;;;;;;3.73;2.33;;;;;;;;;;5066650;28;20239;-60
2023/11/01 02:37:43;;;;;;;4.77;2.43;;;;;;;;;;5066830;28;20177;-60
2023/11/01 02:40:10;;;;;;;4.07;2.67;;;;;;;;;;5065892;28;20272;-59
2023/11/01 02:42:40;;;;;;;2.60;2.13;;;;;;;;;;5067081;28;20651;-59
2023/11/01 02:45:09;;;;;;;3.70;2.30;;;;;;;;;;5066055;28;20257;-59
2023/11/01 02:47:38;;;;;;;4.93;2.53;;;;;;;;;;5066008;28;20176;-61
2023/11/01 02:50:05;;;;;;;3.37;2.30;;;;;;;;;;5064319;28;20214;-60
2023/11/01 02:52:32;;;;;;;7.37;2.53;;;;;;;;;;5067030;28;20184;-60
2023/11/01 02:55:02;;;;;;;2.00;1.90;;;;;;;;;;5066428;28;20219;-60
2023/11/01 02:57:28;;;;;;;3.20;2.40;;;;;;;;;;5065948;28;20195;-61
2023/11/01 02:59:54;;;;;;;4.37;2.37;;;;;;;;;;5066188;28;20562;-57
2023/11/01 03:02:20;;;;;;;3.00;2.50;;;;;;;;;;5063868;28;20628;-56
2023/11/01 03:04:49;;;;;;;4.57;2.27;;;;;;;;;;5063901;28;20188;-58
2023/11/01 03:07:15;;;;;;;4.07;2.00;;;;;;;;;;5068209;28;20169;-60
2023/11/01 03:09:42;;;;;;;5.13;2.90;;;;;;;;;;5066907;28;20699;-57
2023/11/01 03:12:08;;;;;;;2.97;2.23;;;;;;;;;;5064534;28;20561;-59
2023/11/01 03:14:34;;;;;;;5.33;2.60;;;;;;;;;;5066881;28;20196;-57
2023/11/01 03:17:00;;;;;;;4.13;2.47;;;;;;;;;;5065709;28;20204;-57
2023/11/01 03:19:26;;;;;;;3.70;2.37;;;;;;;;;;5065499;28;20177;-56
2023/11/01 03:21:52;;;;;;;5.60;2.53;;;;;;;;;;5066267;28;20168;-56
2023/11/01 03:24:18;;;;;;;4.17;2.30;;;;;;;;;;5071742;28;20195;-57
2023/11/01 03:26:45;;;;;;;2.87;2.17;;;;;;;;;;5067977;28;20593;-58
2023/11/01 03:29:11;;;;;;;4.57;2.77;;;;;;;;;;5066359;28;20183;-56
2023/11/01 03:31:37;;;;;;;4.50;2.40;;;;;;;;;;5066178;28;20181;-56
2023/11/01 03:34:04;;;;;;;3.67;2.77;;;;;;;;;;5066656;28;20570;-57
2023/11/01 03:36:30;;;;;;;3.23;2.43;;;;;;;;;;5064494;28;20234;-56
2023/11/01 03:38:56;;;;;;;3.20;2.57;;;;;;;;;;5066785;28;20180;-58
2023/11/01 03:41:22;;;;;;;7.27;3.03;;;;;;;;;;5064812;28;20184;-59
2023/11/01 03:43:48;;;;;;;2.53;2.33;;;;;;;;;;5059639;28;20656;-59
2023/11/01 03:46:15;;;;;;;3.33;2.60;;;;;;;;;;5065954;28;20188;-58
2023/11/01 03:48:41;;;;;;;3.93;2.67;;;;;;;;;;5066720;28;20177;-58
2023/11/01 03:51:07;;;;;;;5.33;2.90;;;;;;;;;;5065717;28;20250;-58
2023/11/01 03:53:33;;;;;;;3.27;2.80;;;;;;;;;;5066924;28;20207;-58
2023/11/01 03:55:59;;;;;;;4.90;2.60;;;;;;;;;;5066472;28;20208;-58
2023/11/01 03:58:25;;;;;;;4.10;3.03;;;;;;;;;;5066393;28;20196;-58
2023/11/01 04:00:51;;;;;;;3.60;2.90;;;;;;;;;;5066149;28;20181;-58
2023/11/01 04:03:17;;;;;;;3.83;3.40;;;;;;;;;;5065403;28;20208;-58
2023/11/01 04:05:43;;;;;;;5.30;3.07;;;;;;;;;;5065036;28;20187;-58
2023/11/01 04:08:09;;;;;;;2.90;2.60;;;;;;;;;;5066495;28;20241;-56
2023/11/01 04:10:35;;;;;;;3.80;3.20;;;;;;;;;;5066279;28;20202;-55
2023/11/01 04:13:03;;;;;;;5.37;3.33;;;;;;;;;;5065041;28;20206;-55
2023/11/01 04:15:29;;;;;;;3.10;2.80;;;;;;;;;;5065118;28;20671;-55
2023/11/01 04:17:55;;;;;;;5.13;2.87;;;;;;;;;;5064626;28;20180;-56
2023/11/01 04:20:21;;;;;;;4.20;2.93;;;;;;;;;;5062220;28;20187;-57
2023/11/01 04:22:48;;;;;;;4.60;2.67;;;;;;;;;;5065833;28;20552;-55
2023/11/01 04:25:15;;;;;;;5.33;3.17;;;;;;;;;;5065091;28;20176;-56
2023/11/01 04:27:41;;;;;;;4.97;2.90;;;;;;;;;;5065964;28;20638;-56
2023/11/01 04:30:09;;;;;;;3.63;2.33;;;;;;;;;;5065104;28;20184;-57
2023/11/01 04:32:35;;;;;;;4.03;3.57;;;;;;;;;;5062968;28;20781;-56
2023/11/01 04:35:03;;;;;;;6.10;3.47;;;;;;;;;;5065174;28;20200;-56
2023/11/01 04:37:30;;;;;;;3.87;2.60;;;;;;;;;;5061689;28;20184;-56
2023/11/01 04:39:56;;;;;;;3.67;2.90;;;;;;;;;;5064420;28;20271;-56
2023/11/01 04:42:22;;;;;;;5.97;3.03;;;;;;;;;;5066149;28;20658;-56
2023/11/01 04:44:49;;;;;;;3.50;2.90;;;;;;;;;;5064447;28;20184;-56
2023/11/01 04:47:15;;;;;;;3.73;2.27;;;;;;;;;;5065390;28;20188;-56
2023/11/01 04:49:41;;;;;;;2.77;2.40;;;;;;;;;;5065916;28;20176;-56
2023/11/01 04:52:07;;;;;;;3.07;2.57;;;;;;;;;;5064745;28;20651;-56
2023/11/01 04:54:33;;;;;;;4.13;2.57;;;;;;;;;;5065847;28;20181;-56
2023/11/01 04:57:03;;;;;;;3.03;2.30;;;;;;;;;;5065407;28;20643;-56
2023/11/01 04:59:29;;;;;;;4.97;2.20;;;;;;;;;;5063304;28;20207;-57
2023/11/01 05:01:55;;;;;;;2.57;2.37;;;;;;;;;;5063101;28;20512;-61
2023/11/01 05:04:21;;;;;;;2.73;2.53;;;;;;;;;;5064567;28;20176;-56
2023/11/01 05:06:47;;;;;;;3.30;2.50;;;;;;;;;;5064644;28;20726;-57
2023/11/01 05:09:14;;;;;;;3.30;2.00;;;;;;;;;;5061033;28;20182;-56
2023/11/01 05:11:40;;;;;;;3.37;2.23;;;;;;;;;;5065030;28;20660;-58
2023/11/01 05:14:06;;;;;;;3.87;2.53;;;;;;;;;;5069100;28;20592;-58
2023/11/01 05:16:32;;;;;;;3.07;2.33;;;;;;;;;;5062926;28;20210;-57
2023/11/01 05:18:58;;;;;;;2.60;2.13;;;;;;;;;;5068515;28;20222;-56
2023/11/01 05:21:24;;;;;;;3.60;2.20;;;;;;;;;;5067961;28;20636;-57
2023/11/01 05:23:50;;;;;;;2.00;1.90;;;;;;;;;;5068609;28;20180;-62
2023/11/01 05:26:17;;;;;;;2.80;2.03;;;;;;;;;;5068685;28;20225;-57
2023/11/01 05:28:43;;;;;;;3.50;2.43;;;;;;;;;;5069422;28;20598;-57
2023/11/01 05:31:09;;;;;;;3.63;1.93;;;;;;;;;;5068802;28;20215;-57
2023/11/01 05:33:36;;;;;;;3.17;2.03;;;;;;;;;;5068173;28;20564;-57
2023/11/01 05:36:09;;;;;;;3.23;2.03;;;;;;;;;;5067299;28;20192;-58
2023/11/01 05:38:35;;;;;;;1.90;1.67;;;;;;;;;;5069574;28;20729;-57
2023/11/01 05:41:01;;;;;;;2.50;1.80;;;;;;;;;;5067315;28;20187;-57
2023/11/01 05:43:28;;;;;;;3.07;2.13;;;;;;;;;;5067927;28;20241;-60
2023/11/01 05:45:54;;;;;;;1.83;1.53;;;;;;;;;;5068284;28;20196;-57
2023/11/01 05:48:20;;;;;;;2.83;1.70;;;;;;;;;;5068132;28;20188;-58
2023/11/01 05:50:46;;;;;;;3.47;2.00;;;;;;;;;;5072548;28;20182;-57
2023/11/01 05:53:12;;;;;;;2.10;1.80;;;;;;;;;;5068498;28;21772;-57
2023/11/01 05:55:38;;;;;;;2.50;1.87;;;;;;;;;;5068931;28;20739;-57
2023/11/01 05:58:08;;;;;;;11.80;2.40;;;;;;;;;;5068007;28;20718;-57
2023/11/01 06:00:35;;;;;;;3.43;2.03;;;;;;;;;;5068196;28;20329;-57
2023/11/01 06:03:01;;;;;;;2.67;1.77;;;;;;;;;;5067884;28;20264;-57
2023/11/01 06:05:27;;;;;;;4.03;2.10;;;;;;;;;;5067709;28;20277;-57
2023/11/01 06:07:53;;;;;;;2.00;1.80;;;;;;;;;;5067021;28;20336;-57
2023/11/01 06:10:19;;;;;;;2.80;1.97;;;;;;;;;;5060618;28;20231;-58
2023/11/01 06:12:45;;;;;;;2.47;2.10;;;;;;;;;;5068475;28;20283;-58
2023/11/01 06:15:13;;;;;;;2.23;1.90;;;;;;;;;;5066569;28;20635;-57
2023/11/01 06:17:39;;;;;;;1.70;1.60;;;;;;;;;;5064585;28;20195;-57
2023/11/01 06:20:08;;;;;;;3.67;2.00;;;;;;;;;;5068302;28;20683;-57
2023/11/01 06:22:34;;;;;;;3.05;2.10;;;;;;;;;;5064036;28;20457;-57
2023/11/01 06:25:01;;;;;;;3.07;2.27;;;;;;;;;;5063862;28;20208;-57
2023/11/01 06:27:28;;;;;;;2.60;1.87;;;;;;;;;;5067696;28;20184;-57
2023/11/01 06:29:54;;;;;;;3.97;2.03;;;;;;;;;;5066390;28;20186;-58
2023/11/01 06:32:21;;;;;;;2.47;2.23;;;;;;;;;;5061031;28;20229;-58
2023/11/01 06:34:47;;;;;;;2.20;2.00;;;;;;;;;;5065890;28;20187;-58
2023/11/01 06:37:13;;;;;;;2.30;1.70;;;;;;;;;;5062125;28;20699;-58
2023/11/01 06:39:39;;;;;;;3.17;1.90;;;;;;;;;;5066109;28;20182;-59
2023/11/01 06:42:05;;;;;;;2.37;1.90;;;;;;;;;;5067693;28;20185;-59
2023/11/01 06:44:33;;;;;;;3.47;2.40;;;;;;;;;;5067700;28;20181;-58
2023/11/01 06:46:59;;;;;;;2.83;2.00;;;;;;;;;;5066233;28;20177;-58
2023/11/01 06:49:25;;;;;;;3.80;1.80;;;;;;;;;;5070525;28;20193;-59
2023/11/01 06:51:51;;;;;;;6.67;2.83;;;;;;;;;;5066491;28;20531;-59
2023/11/01 06:54:17;;;;;;;3.97;2.53;;;;;;;;;;5065968;28;20188;-58
2023/11/01 06:56:46;;;;;;;2.07;1.87;;;;;;;;;;5064798;28;20212;-58
2023/11/01 06:59:13;;;;;;;2.53;2.20;;;;;;;;;;5064411;28;20554;-58
2023/11/01 07:01:40;;;;;;;4.50;1.87;;;;;;;;;;5063606;28;20176;-59
2023/11/01 07:04:06;;;;;;;2.87;1.90;;;;;;;;;;5067027;28;20187;-59
2023/11/01 07:06:32;;;;;;;3.20;2.10;;;;;;;;;;5067203;28;20338;-58
2023/11/01 07:08:58;;;;;;;2.27;2.10;;;;;;;;;;5067345;28;20222;-58
2023/11/01 07:11:25;;;;;;;2.20;1.70;;;;;;;;;;5060626;28;20549;-58
2023/11/01 07:13:51;;;;;;;3.63;2.20;;;;;;;;;;5067349;28;20187;-59
2023/11/01 07:16:17;;;;;;;4.93;2.10;;;;;;;;;;5067212;28;20295;-58
2023/11/01 07:18:43;;;;;;;4.57;2.20;;;;;;;;;;5064444;28;20276;-58
2023/11/01 07:21:10;;;;;;;3.70;2.03;;;;;;;;;;5063596;28;20601;-58
2023/11/01 07:23:36;;;;;;;5.77;2.50;;;;;;;;;;5067206;28;20192;-59
2023/11/01 07:26:02;;;;;;;2.50;2.30;;;;;;;;;;5067570;28;20662;-58
2023/11/01 07:28:29;;;;;;;2.33;2.07;;;;;;;;;;5065717;28;20188;-58
2023/11/01 07:30:55;;;;;;;4.57;2.13;;;;;;;;;;5064930;28;20186;-59
2023/11/01 07:33:22;;;;;;;2.47;2.00;;;;;;;;;;5064727;28;20318;-58
2023/11/01 07:35:48;;;;;;;5.20;2.20;;;;;;;;;;5063270;28;20214;-58
2023/11/01 07:38:14;;;;;;;3.10;2.07;;;;;;;;;;5061327;28;20697;-58
2023/11/01 07:40:40;;;;;;;7.17;2.40;;;;;;;;;;5064936;28;20188;-58
2023/11/01 07:43:06;;;;;;;8.13;3.30;;;;;;;;;;5066320;28;20233;-58
2023/11/01 07:45:33;;;;;;;2.80;2.17;;;;;;;;;;5064713;28;20291;-58
2023/11/01 07:48:02;;;;;;;2.73;2.00;;;;;;;;;;5064323;28;20196;-58
2023/11/01 07:50:28;;;;;;;3.17;2.10;;;;;;;;;;5066475;28;20536;-58
2023/11/01 07:52:54;;;;;;;2.50;1.83;;;;;;;;;;5065624;28;20195;-58
2023/11/01 07:55:20;;;;;;;3.87;2.37;;;;;;;;;;5062445;28;20642;-58
2023/11/01 07:57:47;;;;;;;5.00;2.30;;;;;;;;;;5064263;28;20207;-58
2023/11/01 08:00:14;;;;;;;2.50;1.97;;;;;;;;;;5063864;28;20196;-58
2023/11/01 08:02:40;;;;;;;4.23;2.20;;;;;;;;;;5062283;28;20658;-58
2023/11/01 08:05:06;;;;;;;5.37;2.53;;;;;;;;;;5065007;28;20689;-58
2023/11/01 08:07:36;;;;;;;4.80;2.40;;;;;;;;;;5064085;28;20187;-59
2023/11/01 08:10:03;;;;;;;5.20;2.53;;;;;;;;;;5061034;28;20177;-58
2023/11/01 08:12:31;;;;;;;2.50;2.17;;;;;;;;;;5065306;28;20181;-58
2023/11/01 08:14:58;;;;;;;2.80;2.00;;;;;;;;;;5065429;28;20195;-58
2023/11/01 08:17:24;;;;;;;3.83;2.10;;;;;;;;;;5065939;28;20208;-58
2023/11/01 08:19:50;;;;;;;5.53;2.30;;;;;;;;;;5069915;28;20643;-58
2023/11/01 08:22:16;;;;;;;2.20;2.00;;;;;;;;;;5065213;28;20522;-58
2023/11/01 08:24:42;;;;;;;4.50;2.47;;;;;;;;;;5066457;28;20460;-58
2023/11/01 08:27:08;;;;;;;2.83;2.10;;;;;;;;;;5065355;28;20196;-58
2023/11/01 08:29:35;;;;;;;6.43;2.27;;;;;;;;;;5067301;28;20268;-59
2023/11/01 08:32:05;;;;;;;3.70;2.83;;;;;;;;;;5063432;28;20663;-58
2023/11/01 08:34:31;;;;;;;3.70;2.30;;;;;;;;;;5066273;28;20279;-58
2023/11/01 08:36:57;;;;;;;3.77;2.27;;;;;;;;;;5059172;28;20543;-58
2023/11/01 08:39:24;;;;;;;5.03;2.80;;;;;;;;;;5062843;28;20279;-59
2023/11/01 08:41:50;;;;;;;3.77;2.23;;;;;;;;;;5064965;28;20260;-58
2023/11/01 08:44:16;;;;;;;4.10;2.57;;;;;;;;;;5065942;28;20183;-58
2023/11/01 08:46:42;;;;;;;9.23;3.03;;;;;;;;;;5064520;28;20207;-58
2023/11/01 08:49:11;;;;;;;6.70;2.93;;;;;;;;;;5069186;28;20915;-58
2023/11/01 08:51:39;;;;;;;2.50;2.20;;;;;;;;;;5067158;28;20645;-58
2023/11/01 08:54:05;;;;;;;5.57;2.60;;;;;;;;;;5071646;28;20180;-59
2023/11/01 08:56:32;;;;;;;2.93;2.13;;;;;;;;;;5070606;28;20638;-58
2023/11/01 08:58:58;;;;;;;6.17;2.90;;;;;;;;;;5070009;28;20214;-58
2023/11/01 09:01:24;;;;;;;2.93;2.33;;;;;;;;;;5068593;28;20177;-58
2023/11/01 09:03:51;;;;;;;4.57;2.67;;;;;;;;;;5069887;28;20182;-59
2023/11/01 09:06:17;;;;;;;4.10;2.60;;;;;;;;;;5067964;28;20566;-58
2023/11/01 09:08:43;;;;;;;5.60;2.47;;;;;;;;;;5072629;28;20738;-58
2023/11/01 09:11:09;;;;;;;2.40;2.10;;;;;;;;;;5069612;28;20192;-58
2023/11/01 09:13:36;;;;;;;4.90;2.40;;;;;;;;;;5071765;28;20250;-58
2023/11/01 09:16:02;;;;;;;4.83;2.60;;;;;;;;;;5070398;28;20212;-58
2023/11/01 09:18:28;;;;;;;6.40;3.07;;;;;;;;;;5068854;28;20574;-58
2023/11/01 09:20:54;;;;;;;5.10;3.13;;;;;;;;;;5067875;28;20619;-58
2023/11/01 09:23:20;;;;;;;3.50;2.30;;;;;;;;;;5067825;28;20185;-58
2023/11/01 09:25:46;;;;;;;4.17;2.30;;;;;;;;;;5064506;28;20193;-58
2023/11/01 09:28:13;;;;;;;4.70;2.23;;;;;;;;;;5062857;28;20193;-58
2023/11/01 09:30:39;;;;;;;3.50;2.20;;;;;;;;;;5065255;28;20188;-59
2023/11/01 09:33:06;;;;;;;3.57;2.67;;;;;;;;;;5064186;28;20236;-58
2023/11/01 09:35:32;;;;;;;4.73;2.43;;;;;;;;;;5068941;28;20587;-58
2023/11/01 09:38:01;;;;;;;6.03;2.43;;;;;;;;;;5068794;28;20182;-58
2023/11/01 09:40:27;;;;;;;3.93;2.20;;;;;;;;;;5068312;28;20238;-58
2023/11/01 09:42:54;;;;;;;8.53;2.87;;;;;;;;;;5069078;28;20589;-58
2023/11/01 09:45:20;;;;;;;5.40;2.17;;;;;;;;;;5068836;28;20176;-58
2023/11/01 09:47:47;;;;;;;2.97;2.30;;;;;;;;;;5066430;28;20183;-58
2023/11/01 09:50:16;;;;;;;2.57;2.10;;;;;;;;;;5070573;28;20180;-58
2023/11/01 09:52:42;;;;;;;3.73;2.23;;;;;;;;;;5067966;28;20187;-58
2023/11/01 09:55:09;;;;;;;2.87;1.93;;;;;;;;;;5069521;28;20284;-58
2023/11/01 09:57:35;;;;;;;3.47;2.77;;;;;;;;;;5070767;28;20196;-58
2023/11/01 10:00:03;;;;;;;5.30;2.27;;;;;;;;;;5070734;28;20867;-58
2023/11/01 10:02:33;;;;;;;4.50;2.10;;;;;;;;;;5063583;28;20176;-59
2023/11/01 10:04:59;;;;;;;4.03;2.23;;;;;;;;;;5068264;28;20188;-59
2023/11/01 10:07:25;;;;;;;2.87;1.97;;;;;;;;;;5067019;28;20190;-59
2023/11/01 10:09:51;;;;;;;5.80;2.70;;;;;;;;;;5069076;28;20700;-59
2023/11/01 10:12:19;;;;;;;2.17;1.90;;;;;;;;;;5057378;28;20194;-59
2023/11/01 10:14:45;;;;;;;3.83;2.40;;;;;;;;;;5048337;28;20262;-59
2023/11/01 10:17:11;;;;;;;3.90;2.93;;;;;;;;;;5046912;28;20204;-59
2023/11/01 10:19:37;;;;;;;2.73;2.03;;;;;;;;;;5068614;28;20169;-59
2023/11/01 10:22:06;;;;;;;4.10;2.50;;;;;;;;;;5066809;28;20605;-58
2023/11/01 10:24:33;;;;;;;3.33;2.23;;;;;;;;;;5066049;28;20613;-58
2023/11/01 10:26:59;;;;;;;5.33;2.37;;;;;;;;;;5068479;28;20184;-58
2023/11/01 10:29:27;;;;;;;3.73;2.43;;;;;;;;;;5062038;28;20589;-58
2023/11/01 10:31:54;;;;;;;5.37;2.50;;;;;;;;;;5065185;28;20637;-58
2023/11/01 10:34:20;;;;;;;5.77;2.53;;;;;;;;;;5065744;28;20177;-58
2023/11/01 10:36:50;;;;;;;5.30;2.20;;;;;;;;;;5065191;28;20273;-59
2023/11/01 10:39:18;;;;;;;3.33;2.10;;;;;;;;;;5065264;28;21511;-58
2023/11/01 10:41:47;;;;;;;4.80;2.53;;;;;;;;;;5066978;28;20172;-58
2023/11/01 10:44:14;;;;;;;4.03;2.30;;;;;;;;;;5068346;28;20474;-58
2023/11/01 10:46:41;;;;;;;5.80;2.20;;;;;;;;;;5066568;28;20563;-59
2023/11/01 10:49:08;;;;;;;4.17;2.17;;;;;;;;;;5067598;28;20177;-59
2023/11/01 10:51:35;;;;;;;3.90;2.27;;;;;;;;;;5061242;28;20188;-58
2023/11/01 10:54:02;;;;;;;4.47;2.30;;;;;;;;;;5066951;28;20215;-58
2023/11/01 10:56:28;;;;;;;3.90;2.27;;;;;;;;;;5061739;28;20206;-58
2023/11/01 10:58:57;;;;;;;4.10;2.37;;;;;;;;;;5065350;28;20578;-58
2023/11/01 11:01:27;;;;;;;3.07;1.93;;;;;;;;;;5065460;28;20276;-58
2023/11/01 11:04:02;;;;;;;6.57;2.50;;;;;;;;;;5063556;28;20195;-58
2023/11/01 11:06:35;;;;;;;3.43;2.40;;;;;;;;;;5063206;28;20203;-58
2023/11/01 11:09:21;;;;;;;6.03;2.20;;;;;;;;;;5065893;28;20219;-57
2023/11/01 11:12:08;;;;;;;4.63;2.23;;;;;;;;;;5061942;28;20196;-58
2023/11/01 11:14:40;;;;;;;5.73;2.00;;;;;;;;;;5063068;28;20176;-58
2023/11/01 11:17:06;;;;;;;4.70;2.00;;;;;;;;;;5062792;28;20624;-57
2023/11/01 11:19:51;;;;;;;4.70;1.93;;;;;;;;;;5063723;28;20735;-58
2023/11/01 11:22:18;;;;;;;4.20;2.53;;;;;;;;;;5065439;28;20630;-57
2023/11/01 11:24:46;;;;;;;1.70;1.60;;;;;;;;;;5055436;28;20193;-58
2023/11/01 11:27:31;;;;;;;3.57;2.80;;;;;;;;;;5063513;28;20180;-58
2023/11/01 11:29:57;;;;;;;4.55;2.30;;;;;;;;;;5062537;28;20463;-62
2023/11/01 11:32:23;;;;;;;2.50;1.70;;;;;;;;;;5065222;28;20221;-57
2023/11/01 11:34:49;;;;;;;3.07;2.03;;;;;;;;;;5065776;28;20202;-57
2023/11/01 11:37:19;;;;;;;2.50;1.80;;;;;;;;;;5063803;28;20611;-57
2023/11/01 11:39:53;;;;;;;3.33;1.90;;;;;;;;;;5061411;28;20710;-57
2023/11/01 11:42:37;;;;;;;2.67;1.83;;;;;;;;;;5064881;28;20177;-58
2023/11/01 11:45:04;;;;;;;5.17;2.83;;;;;;;;;;5065520;28;20194;-58
2023/11/01 11:47:30;;;;;;;6.63;2.30;;;;;;;;;;5064109;28;20194;-58
2023/11/01 11:50:10;;;;;;;3.83;2.00;;;;;;;;;;5066493;28;20187;-58
2023/11/01 11:52:38;;;;;;;3.73;1.87;;;;;;;;;;5059204;28;20212;-58
2023/11/01 11:55:05;;;;;;;4.10;2.30;;;;;;;;;;5061969;28;20544;-58
2023/11/01 11:57:31;;;;;;;4.10;1.90;;;;;;;;;;5061565;28;20573;-57
2023/11/01 12:00:00;;;;;;;2.00;1.77;;;;;;;;;;5063227;28;20229;-58
2023/11/01 12:02:27;;;;;;;4.37;2.00;;;;;;;;;;5065780;28;20180;-58
2023/11/01 12:04:53;;;;;;;4.13;1.90;;;;;;;;;;5064811;28;20177;-58
2023/11/01 12:07:21;;;;;;;3.60;2.10;;;;;;;;;;5064925;28;20196;-59
2023/11/01 12:09:53;;;;;;;6.10;2.73;;;;;;;;;;5063320;28;20287;-58
2023/11/01 12:12:20;;;;;;;4.40;1.73;;;;;;;;;;5063189;28;20195;-58
2023/11/01 12:15:08;;;;;;;3.90;1.77;;;;;;;;;;5064991;28;20192;-58
2023/11/01 12:17:34;;;;;;;4.10;1.93;;;;;;;;;;5064165;28;20257;-58
2023/11/01 12:20:01;;;;;;;2.50;1.90;;;;;;;;;;5064773;28;20385;-58
2023/11/01 12:22:27;;;;;;;3.97;1.87;;;;;;;;;;5062093;28;20188;-60
2023/11/01 12:24:55;;;;;;;3.93;1.70;;;;;;;;;;5059277;28;20260;-60
2023/11/01 12:27:28;;;;;;;2.67;1.90;;;;;;;;;;5064052;28;20656;-59
2023/11/01 12:29:55;;;;;;;3.13;1.90;;;;;;;;;;5063722;28;20606;-59
2023/11/01 12:32:24;;;;;;;3.93;2.17;;;;;;;;;;5066633;28;20694;-59
2023/11/01 12:34:50;;;;;;;6.07;2.43;;;;;;;;;;5066422;28;20180;-59
2023/11/01 12:37:26;;;;;;;4.53;2.13;;;;;;;;;;5066197;28;20188;-59
2023/11/01 12:40:00;;;;;;;4.20;2.20;;;;;;;;;;5065624;28;20180;-60
2023/11/01 12:42:27;;;;;;;5.07;3.07;;;;;;;;;;5065608;28;20640;-60
2023/11/01 12:44:54;;;;;;;1.87;1.70;;;;;;;;;;5064729;28;20191;-60
2023/11/01 12:47:24;;;;;;;2.33;1.80;;;;;;;;;;5064233;28;20176;-61
2023/11/01 12:49:51;;;;;;;3.83;2.30;;;;;;;;;;5066794;28;20188;-59
2023/11/01 12:52:20;;;;;;;5.20;2.33;;;;;;;;;;5066773;28;20191;-59
2023/11/01 12:54:56;;;;;;;3.37;2.40;;;;;;;;;;5065929;28;20206;-59
2023/11/01 12:57:22;;;;;;;5.33;2.23;;;;;;;;;;5059628;28;20715;-59
2023/11/01 12:59:48;;;;;;;20.23;3.17;;;;;;;;;;5067222;28;20186;-59
2023/11/01 13:02:14;;;;;;;3.10;2.27;;;;;;;;;;5058468;28;20550;-61
2023/11/01 13:04:42;;;;;;;4.30;2.30;;;;;;;;;;5061543;28;20183;-59
2023/11/01 13:07:09;;;;;;;6.93;2.45;;;;;;;;;;5061728;28;20902;-58
2023/11/01 13:09:36;;;;;;;6.97;3.17;;;;;;;;;;5063130;28;20198;-56
2023/11/01 13:12:03;;;;;;;6.10;2.60;;;;;;;;;;5058772;28;20164;-59
2023/11/01 13:14:29;;;;;;;5.60;2.77;;;;;;;;;;5062268;28;20193;-57
2023/11/01 13:16:55;;;;;;;5.97;2.10;;;;;;;;;;5062588;28;20195;-56
2023/11/01 13:19:21;;;;;;;7.25;2.53;;;;;;;;;;5063414;28;20418;-56
2023/11/01 13:21:48;;;;;;;5.20;2.53;;;;;;;;;;5060613;28;20190;-56
2023/11/01 13:24:14;;;;;;;5.23;2.30;;;;;;;;;;5062545;28;20189;-55
2023/11/01 13:26:40;;;;;;;4.60;2.07;;;;;;;;;;5061719;28;20699;-54
2023/11/01 13:29:06;;;;;;;6.03;2.50;;;;;;;;;;5067749;28;20566;-55
2023/11/01 13:31:32;;;;;;;6.73;2.27;;;;;;;;;;5065484;28;20281;-56
2023/11/01 13:33:58;;;;;;;6.00;2.30;;;;;;;;;;5066064;28;20205;-55
2023/11/01 13:36:25;;;;;;;4.73;2.60;;;;;;;;;;5065897;28;20211;-56
2023/11/01 13:38:51;;;;;;;4.80;2.40;;;;;;;;;;5064746;28;20443;-55
2023/11/01 13:41:17;;;;;;;5.70;2.53;;;;;;;;;;5066148;28;20193;-56
2023/11/01 13:43:43;;;;;;;8.27;2.47;;;;;;;;;;5069004;28;20176;-57
2023/11/01 13:46:13;;;;;;;14.90;3.10;;;;;;;;;;5068991;28;20214;-56
2023/11/01 13:48:39;;;;;;;6.67;2.80;;;;;;;;;;5068015;28;20239;-54
2023/11/01 13:51:05;;;;;;;3.53;2.47;;;;;;;;;;5071079;28;20564;-57
2023/11/01 13:53:31;;;;;;;7.13;3.87;;;;;;;;;;5070963;28;20162;-56
2023/11/01 13:55:57;;;;;;;3.07;2.30;;;;;;;;;;5071201;28;20191;-56
2023/11/01 13:58:25;;;;;;;4.27;2.67;;;;;;;;;;5068084;28;20815;-57
2023/11/01 14:00:51;;;;;;;8.47;3.30;;;;;;;;;;5071152;28;20186;-56
2023/11/01 14:03:18;;;;;;;8.20;2.80;;;;;;;;;;5070395;28;20246;-57
2023/11/01 14:05:45;;;;;;;7.07;2.23;;;;;;;;;;5068739;28;20175;-56
2023/11/01 14:08:11;;;;;;;5.13;2.13;;;;;;;;;;5064760;28;20206;-57
2023/11/01 14:10:37;;;;;;;7.00;2.40;;;;;;;;;;5061211;28;20163;-57
2023/11/01 14:13:04;;;;;;;3.70;2.00;;;;;;;;;;5073962;28;20691;-58
2023/11/01 14:15:39;;;;;;;4.27;2.17;;;;;;;;;;5070023;28;20197;-56
2023/11/01 14:18:07;;;;;;;4.97;2.50;;;;;;;;;;5068491;28;20627;-58
2023/11/01 14:20:36;;;;;;;4.93;2.30;;;;;;;;;;5068387;28;20186;-56
2023/11/01 14:23:02;;;;;;;6.37;3.47;;;;;;;;;;5070882;28;20578;-57
2023/11/01 14:25:28;;;;;;;7.77;2.70;;;;;;;;;;5069471;28;20612;-57
2023/11/01 14:27:54;;;;;;;6.03;2.40;;;;;;;;;;5066336;28;20182;-56
2023/11/01 14:30:20;;;;;;;8.03;3.03;;;;;;;;;;5066120;28;20170;-56
2023/11/01 14:32:47;;;;;;;8.10;2.93;;;;;;;;;;5059372;28;20886;-56
2023/11/01 14:35:13;;;;;;;6.67;2.90;;;;;;;;;;5064294;28;20701;-57
2023/11/01 14:37:43;;;;;;;7.20;2.57;;;;;;;;;;5062093;28;20322;-57
2023/11/01 14:40:11;;;;;;;5.43;2.37;;;;;;;;;;5067638;28;20193;-56
2023/11/01 14:42:38;;;;;;;9.00;2.30;;;;;;;;;;5067614;28;20166;-55